Time;durP1;ratioP1;P1;durP2;ratioP2;P2;SDS_P1;SDS_P2;PMS_P1;PMS_P2;Temp;Humidity;BMP_temperature;BMP_pressure;BME280_temperature;BME280_humidity;BME280_pressure;Samples;Min_cycle;Max_cycle;Signal;HPM_P1;HPM_P2
2021/10/27 00:02:19;;;;;;;4.13;1.17;;;;;;;11.82;100.00;101256.69;5261028;28;20023;-80
2021/10/27 00:04:50;;;;;;;2.45;1.10;;;;;;;11.80;100.00;101240.16;5271921;28;20020;-81
2021/10/27 00:07:20;;;;;;;3.38;1.23;;;;;;;11.86;100.00;101242.63;5262283;28;20020;-80
2021/10/27 00:09:50;;;;;;;4.78;1.20;;;;;;;11.90;100.00;101241.59;5271991;28;20027;-81
2021/10/27 00:12:21;;;;;;;4.05;1.30;;;;;;;11.75;100.00;101251.69;5262018;28;20031;-81
2021/10/27 00:14:51;;;;;;;3.53;1.20;;;;;;;11.83;100.00;101245.34;5260254;28;20028;-79
2021/10/27 00:17:22;;;;;;;3.05;1.30;;;;;;;11.82;100.00;101246.22;5261821;28;20022;-80
2021/10/27 00:19:52;;;;;;;4.00;1.20;;;;;;;11.86;100.00;101244.34;5271856;28;20023;-81
2021/10/27 00:22:24;;;;;;;3.70;1.45;;;;;;;11.95;100.00;101242.31;5261573;28;20028;-80
2021/10/27 00:24:54;;;;;;;4.30;1.50;;;;;;;11.98;100.00;101242.22;5261181;28;20023;-81
2021/10/27 00:27:25;;;;;;;4.80;1.67;;;;;;;12.03;100.00;101248.19;5260960;28;20039;-79
2021/10/27 00:29:55;;;;;;;3.78;1.73;;;;;;;12.01;100.00;101247.38;5270558;28;20076;-80
2021/10/27 00:32:26;;;;;;;5.88;1.92;;;;;;;11.94;100.00;101245.84;5261320;28;20206;-81
2021/10/27 00:34:56;;;;;;;4.78;1.55;;;;;;;11.97;100.00;101240.50;5270515;28;20030;-80
2021/10/27 00:37:36;;;;;;;5.93;1.90;;;;;;;12.00;100.00;101239.56;5261094;28;20380;-79
2021/10/27 00:40:08;;;;;;;5.72;1.70;;;;;;;12.09;100.00;101236.69;5246027;28;20035;-81
2021/10/27 00:42:38;;;;;;;6.47;1.85;;;;;;;12.11;100.00;101240.94;5251587;28;20024;-81
2021/10/27 00:45:09;;;;;;;5.35;1.40;;;;;;;12.11;100.00;101243.56;5259358;28;20023;-81
2021/10/27 00:47:39;;;;;;;5.97;1.70;;;;;;;12.13;100.00;101247.00;5262106;28;20038;-80
2021/10/27 00:50:10;;;;;;;5.70;1.60;;;;;;;12.16;100.00;101246.03;5270165;28;20040;-81
2021/10/27 00:52:40;;;;;;;7.18;1.63;;;;;;;12.35;99.92;101252.41;5260086;28;20031;-80
2021/10/27 00:55:11;;;;;;;4.75;2.00;;;;;;;12.36;99.83;101252.38;5259023;28;20024;-81
2021/10/27 00:57:42;;;;;;;7.57;2.28;;;;;;;12.37;100.00;101259.34;5260785;28;20032;-80
2021/10/27 01:00:13;;;;;;;3.78;1.60;;;;;;;12.31;100.00;101246.41;5270121;28;20048;-81
2021/10/27 01:02:43;;;;;;;6.53;1.90;;;;;;;12.37;100.00;101241.00;5269534;28;20056;-81
2021/10/27 01:05:15;;;;;;;3.47;1.90;;;;;;;12.35;100.00;101232.31;5259318;28;20020;-81
2021/10/27 01:07:46;;;;;;;7.45;2.10;;;;;;;12.35;100.00;101249.81;5260994;28;20043;-80
2021/10/27 01:10:16;;;;;;;5.85;2.05;;;;;;;12.30;100.00;101246.47;5269790;28;20024;-80
2021/10/27 01:12:47;;;;;;;4.93;2.35;;;;;;;12.37;100.00;101232.25;5260649;28;20114;-81
2021/10/27 01:15:18;;;;;;;6.70;1.92;;;;;;;12.32;100.00;101234.19;5269195;28;20027;-80
2021/10/27 01:17:49;;;;;;;7.05;1.92;;;;;;;12.29;100.00;101227.25;5269612;28;20034;-80
2021/10/27 01:20:19;;;;;;;4.82;1.80;;;;;;;12.24;100.00;101230.94;5271346;28;20036;-80
2021/10/27 01:22:49;;;;;;;3.83;1.92;;;;;;;12.22;100.00;101232.75;5261553;28;20024;-80
2021/10/27 01:25:20;;;;;;;3.58;1.75;;;;;;;12.18;100.00;101229.38;5270186;28;20081;-79
2021/10/27 01:27:52;;;;;;;5.80;1.90;;;;;;;12.16;100.00;101225.91;5272234;28;20027;-80
2021/10/27 01:30:24;;;;;;;5.88;2.00;;;;;;;12.23;100.00;101224.84;5267387;28;20107;-81
2021/10/27 01:32:55;;;;;;;6.70;1.80;;;;;;;12.27;100.00;101234.31;5270602;28;20101;-80
2021/10/27 01:35:26;;;;;;;5.60;2.00;;;;;;;12.22;100.00;101231.00;5266550;28;20016;-79
2021/10/27 01:37:56;;;;;;;6.00;2.22;;;;;;;12.30;100.00;101231.59;5269136;28;20560;-80
2021/10/27 01:40:26;;;;;;;16.20;2.30;;;;;;;12.44;100.00;101226.75;5269545;28;20031;-80
2021/10/27 01:42:57;;;;;;;5.47;1.88;;;;;;;12.33;100.00;101233.28;5258593;28;20657;-81
2021/10/27 01:45:29;;;;;;;5.13;1.88;;;;;;;12.36;100.00;101236.66;5268820;28;20023;-80
2021/10/27 01:48:00;;;;;;;5.13;1.63;;;;;;;12.22;100.00;101241.47;5259514;28;20491;-80
2021/10/27 01:50:30;;;;;;;3.83;1.80;;;;;;;12.31;100.00;101241.16;5269440;28;20097;-80
2021/10/27 01:53:01;;;;;;;4.13;1.65;;;;;;;12.25;100.00;101241.38;5269765;28;20117;-80
2021/10/27 01:55:31;;;;;;;5.20;1.40;;;;;;;12.30;100.00;101239.44;5269208;28;20043;-80
2021/10/27 01:58:02;;;;;;;4.18;1.20;;;;;;;12.29;100.00;101227.25;5269272;28;20506;-81
2021/10/27 02:00:33;;;;;;;3.88;1.45;;;;;;;12.33;100.00;101228.88;5259294;28;20091;-80
2021/10/27 02:03:03;;;;;;;4.43;1.40;;;;;;;12.35;100.00;101226.22;5269079;28;20031;-80
2021/10/27 02:05:33;;;;;;;6.43;1.60;;;;;;;12.27;100.00;101233.47;5258809;28;20605;-80
2021/10/27 02:08:04;;;;;;;3.57;1.40;;;;;;;12.20;100.00;101237.19;5259237;28;20040;-81
2021/10/27 02:10:34;;;;;;;3.25;1.33;;;;;;;12.23;100.00;101232.72;5269543;28;20274;-79
2021/10/27 02:13:04;;;;;;;4.07;1.50;;;;;;;12.36;100.00;101231.41;5259596;28;20023;-80
2021/10/27 02:15:35;;;;;;;3.67;1.30;;;;;;;12.37;100.00;101241.00;5269184;28;20039;-80
2021/10/27 02:18:05;;;;;;;5.55;1.63;;;;;;;12.30;100.00;101234.22;5268735;28;20035;-80
2021/10/27 02:20:35;;;;;;;2.70;1.33;;;;;;;12.20;100.00;101237.19;5260096;28;20181;-79
2021/10/27 02:23:05;;;;;;;4.70;1.50;;;;;;;12.22;100.00;101241.47;5269219;28;20027;-81
2021/10/27 02:25:36;;;;;;;7.55;1.50;;;;;;;12.17;100.00;101240.78;5268995;28;20105;-80
2021/10/27 02:28:06;;;;;;;3.15;1.58;;;;;;;12.17;100.00;101248.63;5259420;28;20028;-81
2021/10/27 02:30:36;;;;;;;4.25;1.23;;;;;;;12.18;100.00;101241.63;5259540;28;20028;-81
2021/10/27 02:33:07;;;;;;;4.93;1.80;;;;;;;12.12;100.00;101237.41;5262149;28;20044;-80
2021/10/27 02:35:37;;;;;;;5.47;1.80;;;;;;;12.12;100.00;101240.03;5258379;28;20042;-79
2021/10/27 02:38:08;;;;;;;3.55;1.58;;;;;;;12.15;100.00;101239.94;5269435;28;20028;-81
2021/10/27 02:40:38;;;;;;;4.20;1.65;;;;;;;12.15;100.00;101239.94;5260131;28;20034;-80
2021/10/27 02:43:08;;;;;;;4.72;1.70;;;;;;;12.21;100.00;101238.88;5259127;28;20032;-81
2021/10/27 02:45:39;;;;;;;4.68;1.70;;;;;;;12.22;100.00;101236.22;5259016;28;20446;-80
2021/10/27 02:48:09;;;;;;;4.90;1.40;;;;;;;12.25;100.00;101235.25;5267144;28;20111;-80
2021/10/27 02:50:40;;;;;;;4.07;1.23;;;;;;;12.20;100.00;101231.94;5259821;28;20031;-80
2021/10/27 02:53:11;;;;;;;5.25;1.27;;;;;;;12.23;100.00;101235.31;5268527;28;20846;-79
2021/10/27 02:55:41;;;;;;;3.38;1.25;;;;;;;12.27;100.00;101234.31;5267581;28;20055;-80
2021/10/27 02:58:11;;;;;;;3.33;1.33;;;;;;;12.24;100.00;101231.78;5251096;28;20031;-79
2021/10/27 03:00:42;;;;;;;3.53;1.40;;;;;;;12.17;100.00;101238.16;5269410;28;20114;-80
2021/10/27 03:03:12;;;;;;;4.57;1.40;;;;;;;12.17;100.00;101235.53;5259888;28;20040;-80
2021/10/27 03:05:44;;;;;;;4.78;1.60;;;;;;;12.10;100.00;101233.16;5268342;28;20266;-82
2021/10/27 03:08:14;;;;;;;2.90;1.60;;;;;;;12.11;100.00;101238.31;5259645;28;20110;-79
2021/10/27 03:10:44;;;;;;;4.03;1.60;;;;;;;12.04;100.00;101242.06;5269403;28;20220;-79
2021/10/27 03:13:15;;;;;;;2.92;1.90;;;;;;;11.97;100.00;101237.88;5259404;28;20020;-78
2021/10/27 03:15:45;;;;;;;4.13;1.90;;;;;;;12.03;100.00;101242.97;5259246;28;20027;-80
2021/10/27 03:18:15;;;;;;;5.68;1.83;;;;;;;12.02;100.00;101238.63;5258661;28;20048;-80
2021/10/27 03:20:46;;;;;;;4.40;1.60;;;;;;;12.11;100.00;101259.28;5262963;28;20085;-80
2021/10/27 03:23:16;;;;;;;2.97;1.52;;;;;;;12.07;100.00;101262.91;5263585;28;20045;-81
2021/10/27 03:25:46;;;;;;;5.28;1.70;;;;;;;12.12;100.00;101270.63;5263083;28;20030;-80
2021/10/27 03:28:17;;;;;;;4.63;1.80;;;;;;;12.02;100.00;101259.59;5263126;28;20035;-78
2021/10/27 03:30:47;;;;;;;3.97;1.80;;;;;;;12.00;100.00;101264.00;5272688;28;20020;-81
2021/10/27 03:33:18;;;;;;;4.43;1.77;;;;;;;11.96;100.00;101265.00;5264131;28;20031;-79
2021/10/27 03:35:48;;;;;;;7.55;2.08;;;;;;;11.97;100.00;101264.09;5263208;28;20020;-80
2021/10/27 03:38:19;;;;;;;3.30;1.92;;;;;;;12.04;100.00;101263.00;5263216;28;20024;-80
2021/10/27 03:40:49;;;;;;;4.78;1.80;;;;;;;12.12;100.00;101258.38;5272908;28;20027;-79
2021/10/27 03:43:19;;;;;;;6.63;1.80;;;;;;;12.07;100.00;101260.28;5273104;28;20027;-77
2021/10/27 03:45:49;;;;;;;4.05;1.85;;;;;;;11.93;100.00;101261.63;5263282;28;20023;-77
2021/10/27 03:48:20;;;;;;;4.55;1.70;;;;;;;11.93;100.00;101256.38;5272277;28;20065;-80
2021/10/27 03:50:50;;;;;;;4.10;1.73;;;;;;;12.03;100.00;101255.19;5262793;28;20023;-81
2021/10/27 03:53:21;;;;;;;4.22;1.80;;;;;;;12.01;100.00;101250.00;5262624;28;20246;-80
2021/10/27 03:55:51;;;;;;;6.22;2.03;;;;;;;11.92;100.00;101252.91;5258268;28;20052;-79
2021/10/27 03:58:21;;;;;;;6.28;2.10;;;;;;;12.11;100.00;101256.66;5262490;28;20028;-81
2021/10/27 04:00:52;;;;;;;3.80;2.05;;;;;;;12.04;100.00;101256.91;5260654;28;20032;-79
2021/10/27 04:03:23;;;;;;;4.53;1.95;;;;;;;12.06;100.00;101258.56;5260018;28;20027;-80
2021/10/27 04:05:53;;;;;;;3.65;1.80;;;;;;;12.04;100.00;101260.38;5262333;28;20026;-81
2021/10/27 04:08:24;;;;;;;7.80;2.10;;;;;;;11.98;100.00;101257.09;5263431;28;20247;-81
2021/10/27 04:10:54;;;;;;;4.70;1.88;;;;;;;12.00;100.00;101250.91;5262506;28;20471;-79
2021/10/27 04:13:24;;;;;;;3.10;1.60;;;;;;;12.04;100.00;101249.91;5262870;28;20026;-81
2021/10/27 04:15:55;;;;;;;3.33;1.60;;;;;;;12.07;100.00;101247.19;5262450;28;20024;-81
2021/10/27 04:18:25;;;;;;;3.53;1.90;;;;;;;12.08;100.00;101259.38;5273325;28;20116;-81
2021/10/27 04:20:57;;;;;;;4.95;1.80;;;;;;;11.97;100.00;101253.59;5273146;28;20028;-81
2021/10/27 04:23:27;;;;;;;4.35;1.70;;;;;;;12.00;100.00;101261.41;5263936;28;20040;-80
2021/10/27 04:25:57;;;;;;;3.33;1.83;;;;;;;12.01;100.00;101260.50;5263836;28;20061;-80
2021/10/27 04:28:28;;;;;;;6.80;2.00;;;;;;;11.96;100.00;101270.22;5263297;28;20028;-80
2021/10/27 04:31:01;;;;;;;3.00;1.70;;;;;;;12.06;100.00;101274.31;5256371;28;20114;-81
2021/10/27 04:33:32;;;;;;;4.18;1.90;;;;;;;12.09;100.00;101276.81;5261469;28;20035;-81
2021/10/27 04:36:02;;;;;;;4.75;2.08;;;;;;;12.01;100.00;101276.22;5271827;28;20545;-81
2021/10/27 04:38:33;;;;;;;5.70;1.95;;;;;;;11.95;100.00;101278.16;5273974;28;20374;-77
2021/10/27 04:41:03;;;;;;;5.60;1.88;;;;;;;11.96;100.00;101279.88;5256730;28;20077;-81
2021/10/27 04:43:33;;;;;;;4.47;1.95;;;;;;;12.03;100.00;101277.00;5273381;28;20028;-79
2021/10/27 04:46:04;;;;;;;4.95;2.00;;;;;;;11.97;100.00;101273.72;5262948;28;20030;-81
2021/10/27 04:48:34;;;;;;;5.68;1.98;;;;;;;12.06;100.00;101278.66;5260608;28;20030;-81
2021/10/27 04:51:05;;;;;;;7.03;2.20;;;;;;;12.07;100.00;101278.63;5263532;28;20024;-81
2021/10/27 04:53:35;;;;;;;5.88;1.95;;;;;;;12.04;100.00;101273.50;5271612;28;20066;-81
2021/10/27 04:56:05;;;;;;;5.20;1.88;;;;;;;12.06;100.00;101276.03;5262367;28;20016;-79
2021/10/27 04:58:36;;;;;;;5.20;1.90;;;;;;;11.98;100.00;101278.91;5263708;28;20129;-81
2021/10/27 05:01:06;;;;;;;5.60;2.15;;;;;;;11.98;100.00;101272.81;5272295;28;20032;-81
2021/10/27 05:03:36;;;;;;;7.10;2.00;;;;;;;12.07;100.00;101281.25;5262821;28;20032;-80
2021/10/27 05:06:08;;;;;;;3.95;1.90;;;;;;;12.11;100.00;101280.25;5272038;28;20621;-80
2021/10/27 05:08:39;;;;;;;6.32;1.98;;;;;;;12.08;100.00;101262.00;5262861;28;20081;-81
2021/10/27 05:11:09;;;;;;;4.30;1.70;;;;;;;12.21;100.00;101267.72;5271455;28;20028;-82
2021/10/27 05:13:39;;;;;;;4.15;1.58;;;;;;;12.24;100.00;101265.88;5271753;28;20486;-82
2021/10/27 05:16:11;;;;;;;6.05;1.60;;;;;;;12.12;100.00;101266.25;5271746;28;20076;-81
2021/10/27 05:18:41;;;;;;;2.83;1.50;;;;;;;12.11;100.00;101261.91;5261514;28;20038;-82
2021/10/27 05:21:11;;;;;;;6.07;1.50;;;;;;;12.14;100.00;101267.03;5261351;28;20020;-82
2021/10/27 05:23:41;;;;;;;4.95;1.75;;;;;;;12.12;100.00;101268.88;5261458;28;20111;-80
2021/10/27 05:26:12;;;;;;;4.07;1.80;;;;;;;12.14;100.00;101267.03;5261324;28;20016;-82
2021/10/27 05:28:42;;;;;;;5.25;1.77;;;;;;;12.13;100.00;101270.56;5271948;28;20020;-82
2021/10/27 05:31:12;;;;;;;4.68;1.58;;;;;;;12.25;100.00;101272.81;5272648;28;20027;-81
2021/10/27 05:33:42;;;;;;;4.65;1.40;;;;;;;12.20;100.00;101269.50;5262430;28;20134;-79
2021/10/27 05:36:13;;;;;;;4.25;1.52;;;;;;;12.17;100.00;101279.22;5262801;28;20043;-79
2021/10/27 05:38:43;;;;;;;4.57;1.60;;;;;;;12.12;100.00;101268.03;5272527;28;20027;-80
2021/10/27 05:41:14;;;;;;;1.88;1.27;;;;;;;12.30;100.00;101275.31;5262792;28;20467;-83
2021/10/27 05:43:45;;;;;;;6.85;2.13;;;;;;;12.24;100.00;101278.97;5262677;28;20043;-81
2021/10/27 05:46:18;;;;;;;5.47;1.80;;;;;;;12.20;100.00;101279.09;5272527;28;20037;-78
2021/10/27 05:48:58;;;;;;;3.30;1.40;;;;;;;12.18;100.00;101283.53;5263519;28;20060;-81
2021/10/27 05:51:42;;;;;;;4.90;1.73;;;;;;;12.25;100.00;101280.69;5259286;28;20027;-81
2021/10/27 05:57:03;;;;;;;3.95;1.70;;;;;;;12.27;100.00;101278.88;5265581;28;20419;-81
2021/10/27 05:59:34;;;;;;;4.45;1.40;;;;;;;12.29;100.00;101291.94;5261949;28;20060;-80
2021/10/27 06:02:04;;;;;;;7.63;1.70;;;;;;;12.25;100.00;101293.78;5262116;28;20244;-79
2021/10/27 06:04:36;;;;;;;3.55;1.42;;;;;;;12.19;100.00;101299.22;5260994;28;20042;-80
2021/10/27 06:07:06;;;;;;;4.60;2.10;;;;;;;12.29;100.00;101300.66;5261455;28;20274;-81
2021/10/27 06:09:38;;;;;;;5.45;1.55;;;;;;;12.27;100.00;101299.00;5263050;28;20169;-81
2021/10/27 06:12:13;;;;;;;4.13;1.67;;;;;;;12.29;100.00;101294.56;5261910;28;20028;-83
2021/10/27 06:14:45;;;;;;;5.90;2.03;;;;;;;12.37;100.00;101298.66;5261871;28;20084;-82
2021/10/27 06:17:15;;;;;;;4.57;1.80;;;;;;;12.39;100.00;101291.59;5261770;28;20091;-82
2021/10/27 06:19:50;;;;;;;4.40;1.83;;;;;;;12.43;100.00;101302.88;5261160;28;20120;-82
2021/10/27 06:22:21;;;;;;;5.90;1.60;;;;;;;12.38;100.00;101300.38;5254235;28;20028;-79
2021/10/27 06:24:54;;;;;;;4.45;1.75;;;;;;;12.44;100.00;101300.16;5271516;28;20553;-82
2021/10/27 06:27:24;;;;;;;2.78;1.60;;;;;;;12.40;100.00;101302.94;5262002;28;20028;-80
2021/10/27 06:32:33;;;;;;;5.53;2.08;;;;;;;12.40;100.00;101319.53;5271912;28;20034;-79
2021/10/27 06:35:17;;;;;;;4.28;1.98;;;;;;;12.55;100.00;101321.69;5262075;28;20083;-83
2021/10/27 06:49:04;;;;;;;4.57;2.40;;;;;;;12.55;100.00;101339.16;5265582;28;20194;-81
2021/10/27 06:51:35;;;;;;;10.13;2.58;;;;;;;12.47;100.00;101342.03;5252762;28;20463;-80
2021/10/27 06:54:06;;;;;;;6.05;2.20;;;;;;;12.45;100.00;101349.06;5259600;28;20110;-82
2021/10/27 06:56:36;;;;;;;6.90;2.78;;;;;;;12.49;100.00;101355.94;5261632;28;20020;-81
2021/10/27 07:05:42;;;;;;;6.28;2.10;;;;;;;12.55;100.00;101365.38;5270413;28;20035;-81
2021/10/27 07:16:05;;;;;;;4.95;2.20;;;;;;;12.71;100.00;101359.63;5239889;28;20032;-80
2021/10/27 07:18:36;;;;;;;5.45;2.25;;;;;;;12.83;100.00;101374.97;5266935;28;20028;-82
2021/10/27 07:21:06;;;;;;;5.70;2.00;;;;;;;12.80;100.00;101375.06;5259503;28;20506;-79
2021/10/27 07:23:39;;;;;;;4.28;2.10;;;;;;;12.79;100.00;101373.34;5261933;28;20128;-78
2021/10/27 07:26:09;;;;;;;5.18;2.00;;;;;;;12.80;100.00;101377.69;5265300;28;20024;-79
2021/10/27 07:28:41;;;;;;;4.25;2.30;;;;;;;12.87;100.00;101379.22;5262458;28;20028;-79
2021/10/27 07:31:14;;;;;;;4.97;1.73;;;;;;;12.75;100.00;101373.47;5261413;28;20024;-82
2021/10/27 07:33:52;;;;;;;3.92;1.80;;;;;;;12.69;100.00;101371.94;5261332;28;20237;-81
2021/10/27 07:36:39;;;;;;;3.13;1.75;;;;;;;12.76;100.00;101369.94;5257498;28;20016;-82
2021/10/27 07:41:58;;;;;;;4.43;1.92;;;;;;;12.85;100.00;101367.88;5268027;28;20161;-80
2021/10/27 07:44:29;;;;;;;2.90;1.60;;;;;;;12.85;100.00;101357.41;5261237;28;20050;-82
2021/10/27 07:46:59;;;;;;;3.35;1.80;;;;;;;12.94;100.00;101372.88;5256428;28;20498;-79
2021/10/27 07:49:29;;;;;;;7.15;1.90;;;;;;;12.95;100.00;101371.13;5260804;28;20046;-81
2021/10/27 07:52:00;;;;;;;3.53;1.60;;;;;;;13.03;100.00;101370.81;5271190;28;20458;-82
2021/10/27 07:54:30;;;;;;;4.30;1.85;;;;;;;13.05;100.00;101383.91;5259850;28;20027;-82
2021/10/27 07:57:01;;;;;;;1.92;1.38;;;;;;;13.08;100.00;101374.13;5270256;28;20023;-81
2021/10/27 07:59:33;;;;;;;5.10;1.80;;;;;;;12.98;100.00;101383.25;5261071;28;20040;-79
2021/10/27 08:02:06;;;;;;;5.97;1.80;;;;;;;12.91;100.00;101378.22;5261078;28;20027;-81
2021/10/27 08:04:37;;;;;;;2.67;1.70;;;;;;;13.07;100.00;101385.56;5261563;28;20047;-80
2021/10/27 08:07:08;;;;;;;2.90;1.30;;;;;;;13.08;100.00;101382.00;5264883;28;20020;-82
2021/10/27 08:09:38;;;;;;;4.43;2.03;;;;;;;13.10;100.00;101387.22;5265026;28;20032;-80
2021/10/27 08:12:08;;;;;;;5.35;1.83;;;;;;;13.18;100.00;101390.44;5265329;28;20024;-82
2021/10/27 08:14:39;;;;;;;3.58;1.60;;;;;;;13.09;100.00;101385.50;5263737;28;20120;-82
2021/10/27 08:17:09;;;;;;;3.17;1.50;;;;;;;13.10;100.00;101384.59;5265200;28;20475;-81
2021/10/27 08:19:39;;;;;;;4.07;1.63;;;;;;;13.16;100.00;101389.63;5265074;28;20039;-80
2021/10/27 08:22:11;;;;;;;4.55;2.05;;;;;;;13.23;100.00;101385.91;5274384;28;20292;-82
2021/10/27 08:24:41;;;;;;;4.93;1.30;;;;;;;13.20;100.00;101383.41;5273777;28;20328;-80
2021/10/27 08:27:13;;;;;;;4.55;1.77;;;;;;;13.18;100.00;101383.44;5264226;28;20024;-79
2021/10/27 08:29:44;;;;;;;4.72;1.70;;;;;;;13.20;100.00;101386.03;5273524;28;20034;-80
2021/10/27 08:33:02;;;;;;;2.95;1.70;;;;;;;13.31;100.00;101386.50;5264370;28;20250;-82
2021/10/27 08:35:05;;;;;;;3.47;1.67;;;;;;;13.41;100.00;101382.66;5260353;28;20180;-80
2021/10/27 08:37:35;;;;;;;4.00;1.70;;;;;;;13.40;100.00;101388.84;5274749;28;20503;-82
2021/10/27 08:40:06;;;;;;;2.85;1.80;;;;;;;13.39;100.00;101390.59;5263972;28;20028;-83
2021/10/27 08:42:38;;;;;;;5.30;1.67;;;;;;;13.51;100.00;101399.81;5264219;28;20035;-81
2021/10/27 08:45:10;;;;;;;3.30;1.58;;;;;;;13.53;100.00;101404.13;5263968;28;20441;-80
2021/10/27 08:47:41;;;;;;;4.10;1.70;;;;;;;13.62;100.00;101398.56;5273348;28;20055;-81
2021/10/27 08:50:14;;;;;;;3.75;1.80;;;;;;;13.69;100.00;101401.81;5261016;28;21055;-81
2021/10/27 08:52:44;;;;;;;5.13;1.90;;;;;;;13.63;100.00;101409.91;5255134;28;20028;-82
2021/10/27 08:55:16;;;;;;;5.85;1.60;;;;;;;13.71;100.00;101411.34;5263444;28;20077;-80
2021/10/27 08:57:49;;;;;;;3.70;1.80;;;;;;;13.73;100.00;101412.16;5265606;28;20031;-82
2021/10/27 09:00:48;;;;;;;5.00;1.80;;;;;;;13.84;100.00;101412.66;5263302;28;20398;-81
2021/10/27 09:06:16;;;;;;;3.33;1.90;;;;;;;13.98;100.00;101406.88;5263724;28;20054;-81
2021/10/27 09:09:08;;;;;;;6.05;2.63;;;;;;;13.87;100.00;101409.91;5269937;28;20058;-82
2021/10/27 09:15:12;;;;;;;5.68;2.00;;;;;;;14.05;100.00;101409.25;5261048;28;20153;-81
2021/10/27 09:35:08;;;;;;;5.70;2.30;;;;;;;14.29;100.00;101397.00;5269543;28;20534;-81
2021/10/27 09:38:02;;;;;;;3.75;1.65;;;;;;;14.44;100.00;101397.25;5267247;28;20032;-81
2021/10/27 10:06:44;;;;;;;6.65;2.50;;;;;;;14.89;99.77;101396.34;5268231;28;20027;-80
2021/10/27 10:09:16;;;;;;;6.03;2.30;;;;;;;14.90;98.97;101398.06;5268671;28;20055;-81
2021/10/27 10:11:48;;;;;;;4.82;2.30;;;;;;;14.88;99.04;101399.88;5257919;28;20399;-81
2021/10/27 10:14:20;;;;;;;5.38;2.03;;;;;;;14.96;97.03;101404.81;5258824;28;20111;-81
2021/10/27 10:16:57;;;;;;;6.07;2.30;;;;;;;15.07;97.31;101398.25;5268747;28;20028;-80
2021/10/27 10:19:35;;;;;;;4.82;2.10;;;;;;;15.04;97.07;101394.88;5254493;28;20023;-81
2021/10/27 10:22:24;;;;;;;4.43;2.25;;;;;;;15.19;98.53;101392.44;5268107;28;20042;-81
2021/10/27 10:25:14;;;;;;;3.45;1.90;;;;;;;15.31;97.86;101388.47;5267131;28;20530;-81
2021/10/27 10:27:51;;;;;;;4.32;1.80;;;;;;;15.36;98.51;101394.44;5259814;28;20376;-82
2021/10/27 10:30:39;;;;;;;4.50;1.92;;;;;;;15.51;97.27;101391.16;5258680;28;20028;-81
2021/10/27 10:33:11;;;;;;;4.43;1.77;;;;;;;15.50;96.58;101390.28;5257385;28;20035;-80
2021/10/27 10:36:03;;;;;;;4.07;1.35;;;;;;;15.47;96.84;101379.88;5257666;28;20073;-81
2021/10/27 10:45:26;;;;;;;4.10;1.67;;;;;;;15.57;95.03;101378.53;5263128;28;20043;-81
2021/10/27 11:24:01;;;;;;;4.53;1.70;;;;;;;15.35;96.20;101390.09;5263715;28;20097;-81
2021/10/27 11:37:55;;;;;;;4.07;1.80;;;;;;;15.27;95.93;101384.22;5261010;28;20489;-82
2021/10/27 11:40:35;;;;;;;4.65;1.30;;;;;;;15.23;95.63;101378.25;5255453;28;20074;-81
2021/10/27 11:43:17;;;;;;;3.25;1.60;;;;;;;15.17;95.66;101385.56;5261459;28;20068;-82
2021/10/27 11:48:33;;;;;;;4.38;1.63;;;;;;;15.16;96.66;101379.41;5270652;28;20044;-81
2021/10/27 11:51:09;;;;;;;3.72;1.50;;;;;;;15.24;96.31;101381.72;5258444;28;20027;-81
2021/10/27 11:53:48;;;;;;;5.00;1.70;;;;;;;15.24;96.72;101387.88;5270970;28;20085;-81
2021/10/27 11:56:21;;;;;;;2.90;1.42;;;;;;;15.17;97.70;101388.19;5270996;28;20099;-81
2021/10/27 11:58:54;;;;;;;5.93;2.45;;;;;;;15.29;96.60;101383.28;5252433;28;20016;-81
2021/10/27 12:01:32;;;;;;;5.32;2.20;;;;;;;15.21;96.82;101385.34;5260818;28;20115;-81
2021/10/27 12:04:06;;;;;;;3.85;1.70;;;;;;;15.07;97.11;101381.56;5260902;28;20097;-81
2021/10/27 12:06:40;;;;;;;3.10;1.63;;;;;;;15.02;97.29;101387.00;5271097;28;20038;-81
2021/10/27 12:14:39;;;;;;;4.03;1.88;;;;;;;15.05;98.74;101378.16;5270104;28;20031;-81
2021/10/27 12:17:36;;;;;;;4.57;2.00;;;;;;;15.15;98.88;101371.59;5268804;28;20023;-81
2021/10/27 12:20:07;;;;;;;7.40;2.28;;;;;;;15.05;98.54;101378.97;5268107;28;20463;-81
2021/10/27 12:22:37;;;;;;;4.53;2.10;;;;;;;15.05;99.07;101380.78;5269812;28;20023;-81
2021/10/27 12:25:08;;;;;;;4.18;2.20;;;;;;;15.20;96.91;101370.44;5270013;28;20065;-80
2021/10/27 12:27:42;;;;;;;7.65;2.33;;;;;;;15.10;99.85;101363.88;5268832;28;20514;-81
2021/10/27 12:30:16;;;;;;;4.22;1.73;;;;;;;15.17;100.00;101360.06;5270526;28;20483;-81
2021/10/27 12:32:55;;;;;;;5.72;2.30;;;;;;;15.14;98.55;101361.94;5260861;28;20039;-81
2021/10/27 12:35:27;;;;;;;5.05;1.80;;;;;;;15.25;99.03;101363.25;5256469;28;20020;-81
2021/10/27 12:38:14;;;;;;;4.40;1.50;;;;;;;15.23;98.99;101364.22;5270316;28;20173;-81
2021/10/27 12:40:46;;;;;;;3.80;1.70;;;;;;;15.15;99.42;101359.25;5270311;28;20020;-81
2021/10/27 12:43:18;;;;;;;2.92;1.52;;;;;;;15.34;99.09;101352.34;5270384;28;20015;-81
2021/10/27 12:45:51;;;;;;;4.38;1.70;;;;;;;15.40;98.75;101352.06;5259633;28;20043;-83
2021/10/27 12:48:25;;;;;;;5.63;1.45;;;;;;;15.61;97.84;101361.69;5247786;28;20020;-80
2021/10/27 12:51:01;;;;;;;3.03;1.40;;;;;;;15.43;98.45;101349.31;5269875;28;20039;-81
2021/10/27 12:53:34;;;;;;;4.47;1.63;;;;;;;15.36;97.96;101355.75;5270602;28;20027;-80
2021/10/27 12:56:08;;;;;;;3.72;1.70;;;;;;;15.37;98.58;101352.19;5269848;28;20020;-81
2021/10/27 12:58:45;;;;;;;5.00;1.50;;;;;;;15.34;97.60;101354.97;5270026;28;20024;-81
2021/10/27 13:01:25;;;;;;;4.07;1.50;;;;;;;15.26;97.97;101354.41;5269997;28;20028;-81
2021/10/27 13:09:39;;;;;;;2.88;1.42;;;;;;;15.38;97.59;101338.09;5265667;28;20032;-81
2021/10/27 13:12:38;;;;;;;4.95;1.45;;;;;;;15.38;98.58;101345.16;5270420;28;20465;-80
2021/10/27 13:15:40;;;;;;;5.40;1.60;;;;;;;15.28;99.16;101344.66;5264115;28;20016;-83
2021/10/27 13:31:18;;;;;;;3.03;1.38;;;;;;;15.50;98.33;101342.00;5268557;28;20511;-81
2021/10/27 13:33:49;;;;;;;3.25;1.40;;;;;;;15.42;97.39;101344.09;5259692;28;20040;-81
2021/10/27 13:36:19;;;;;;;2.92;1.30;;;;;;;15.39;97.84;101345.06;5259853;28;20028;-81
2021/10/27 13:38:51;;;;;;;6.13;1.60;;;;;;;15.32;99.06;101343.63;5259690;28;20435;-81
2021/10/27 13:41:21;;;;;;;2.10;1.40;;;;;;;15.32;98.07;101334.91;5258718;28;20035;-81
2021/10/27 13:43:55;;;;;;;2.83;1.48;;;;;;;15.26;98.22;101333.34;5263853;28;20020;-82
2021/10/27 13:47:16;;;;;;;4.78;1.20;;;;;;;15.29;97.27;101338.50;5266190;28;20028;-81
2021/10/27 13:49:46;;;;;;;2.85;1.33;;;;;;;15.24;98.63;101335.19;5256619;28;20036;-81
2021/10/27 14:06:12;;;;;;;4.72;1.55;;;;;;;15.43;96.65;101325.59;5265301;28;20445;-80
2021/10/27 14:09:49;;;;;;;4.28;1.45;;;;;;;15.41;96.60;101324.81;5267111;28;20054;-81
2021/10/27 14:11:57;;;;;;;4.57;1.63;;;;;;;15.39;97.48;101326.63;5244159;28;20040;-80
2021/10/27 14:14:40;;;;;;;3.70;1.52;;;;;;;15.34;99.01;101326.00;5264627;28;20020;-81
2021/10/27 14:17:34;;;;;;;5.07;1.40;;;;;;;15.33;98.55;101326.91;5258226;28;20030;-81
2021/10/27 14:20:40;;;;;;;3.83;1.20;;;;;;;15.38;98.87;101324.09;5259026;28;20051;-81
2021/10/27 14:50:58;;;;;;;4.45;1.60;;;;;;;14.97;100.00;101310.00;5267013;28;20051;-81
2021/10/27 15:21:26;;;;;;;2.88;1.30;;;;;;;14.61;100.00;101291.38;5265001;28;20053;-80
2021/10/27 15:27:44;;;;;;;2.85;1.55;;;;;;;14.50;100.00;101285.69;5265493;28;20012;-80
2021/10/27 15:29:28;;;;;;;3.13;1.60;;;;;;;14.30;100.00;101294.41;5265086;28;20039;-80
2021/10/27 15:40:25;;;;;;;3.45;1.75;;;;;;;14.09;100.00;101299.59;5264694;28;20038;-80
2021/10/27 15:43:28;;;;;;;5.45;2.22;;;;;;;14.04;100.00;101297.13;5265296;28;20381;-81
2021/10/27 15:51:29;;;;;;;5.13;2.10;;;;;;;13.91;100.00;101308.16;5235320;28;20459;-81
2021/10/27 15:53:59;;;;;;;3.83;2.10;;;;;;;13.74;100.00;101310.56;5263785;28;20024;-80
2021/10/27 15:56:30;;;;;;;7.60;2.05;;;;;;;13.65;100.00;101306.50;5248194;28;20043;-80
2021/10/27 15:59:00;;;;;;;3.22;1.90;;;;;;;13.53;100.00;101319.19;5265128;28;20023;-80